Aérodrome :
LOGIN :

S'inscrire | Disclaimer

   EN    FR    IT 

 










Légende :    VFR   VFR Marginal   IFR   IFR Intensif   IFR Très Intensif
Visi : 
Plafond : 
>= 8 km
>= 3000ft
5 à 8 km
1000 à 3000 ft
1500m à 5 km
500 à 1000 ft
800 à 1500m
200 à 500 ft
< 800m
< 200 ft
Symboles :   Orages  Brouillard  Fortes neiges  Fortes précipitations  Vent > 20 kt
SIGMETs :   Divers  Orages  Givrage  Turbulence  Onde Orograph.  Cendres Volcan.







- Altitude de l'aérodrome : 538 ft
- Code IATA : TNF
- Voir les cartes d'approche


LFPN - Toussus Le Noble

DERNIER METAR :
  • 280630Z AUTO 25009KT 9999 SCT010 SCT015 BKN100 17/14 Q1000 TEMPO SHRA BKN022TCU

METARs EXPIRÉS :
  • 280600Z AUTO 24006KT 9999 FEW008 SCT024 BKN094 17/15 Q1000 TEMPO SHRA BKN022TCU
  • 280530Z AUTO 24004KT 9999 SCT007 BKN013 OVC021 16/15 Q1000 TEMPO SHRA BKN022TCU
  • 280500Z AUTO 24004KT 9999 FEW006 SCT010 BKN014 16/15 Q1000
  • 280430Z AUTO 24004KT 9999 SCT011 OVC019 16/15 Q1000
  • 280400Z AUTO 25004KT 230V290 9999 BKN007 OVC019 16/15 Q1000

TAF TAF LFPN
Valide du 28 à 06h jusqu'au 28 à 15h UTC


280500Z 2806/2815 23005KT 9999 SCT006 BKN012
BECMG 2806/2808 SCT012 BKN020
TEMPO 2807/2815 SHRA BKN022TCU
PROB30
TEMPO 2812/2815 23015G30KT 4000 -TSRA BKN030CB
ATIS : +33 1 39 56 54 70
Pas de NOTAMs connus pour ce terrain.



MET'MAP, la Météo Aéronautique d'un coup d'oeil ! - Copyright ORBIFLY Décembre 2007 - Disclaimer

ORBIFLY MET'MAP TEAM :

Programmation & Développement : Alexandra Zaïnal
Conception & Développement : Baudouin d'Aumeries
Co-Programmation & Développement : Marc-Olivier Méhu
Soutien technique & logistique : Manuel Goepfert

Contact : metmap@orbifly.com




SOURCES & CREDITS :

   NOAA